Time;durP1;ratioP1;P1;durP2;ratioP2;P2;SDS_P1;SDS_P2;PMS_P1;PMS_P2;Temp;Humidity;BMP_temperature;BMP_pressure;BME280_temperature;BME280_humidity;BME280_pressure;Samples;Min_cycle;Max_cycle;Signal;HPM_P1;HPM_P2
2023/05/01 00:01:51;;;;;;;16.02;10.32;;;;;;;;;;4373617;32;318489;-83
2023/05/01 00:04:20;;;;;;;16.42;9.73;;;;;;;;;;4376923;32;318656;-84
2023/05/01 00:06:47;;;;;;;13.80;10.05;;;;;;;;;;4358403;32;318329;-83
2023/05/01 00:09:15;;;;;;;14.95;11.40;;;;;;;;;;4367334;32;318570;-84
2023/05/01 00:11:42;;;;;;;16.73;11.43;;;;;;;;;;4367805;32;319431;-83
2023/05/01 00:14:09;;;;;;;15.60;10.88;;;;;;;;;;4357549;32;319492;-82
2023/05/01 00:16:36;;;;;;;14.07;9.75;;;;;;;;;;4367130;32;319325;-82
2023/05/01 00:19:03;;;;;;;12.73;9.48;;;;;;;;;;4358420;32;318104;-83
2023/05/01 00:21:30;;;;;;;12.48;9.05;;;;;;;;;;4363721;32;318226;-82
2023/05/01 00:23:57;;;;;;;17.37;9.82;;;;;;;;;;4372403;32;317561;-83
2023/05/01 00:26:29;;;;;;;15.60;11.20;;;;;;;;;;4381929;32;318258;-83
2023/05/01 00:28:56;;;;;;;14.52;10.95;;;;;;;;;;4372111;32;318732;-83
2023/05/01 00:31:24;;;;;;;10.77;8.80;;;;;;;;;;4381989;32;354944;-83
2023/05/01 00:33:52;;;;;;;12.35;9.45;;;;;;;;;;4371378;32;317813;-83
2023/05/01 00:36:19;;;;;;;13.90;9.80;;;;;;;;;;4382739;32;317530;-83
2023/05/01 00:38:46;;;;;;;17.23;13.23;;;;;;;;;;4375222;32;318801;-83
2023/05/01 00:41:13;;;;;;;27.30;14.10;;;;;;;;;;4367886;32;319521;-82
2023/05/01 00:43:42;;;;;;;13.10;10.93;;;;;;;;;;4366697;32;319639;-83
2023/05/01 00:46:10;;;;;;;14.83;10.30;;;;;;;;;;4357490;32;319538;-83
2023/05/01 00:48:37;;;;;;;13.10;9.07;;;;;;;;;;4367527;32;319037;-82
2023/05/01 00:51:05;;;;;;;15.20;10.70;;;;;;;;;;4371862;32;318701;-83
2023/05/01 00:53:36;;;;;;;9.75;7.93;;;;;;;;;;4382999;32;319645;-83
2023/05/01 00:56:04;;;;;;;10.35;6.78;;;;;;;;;;4373062;32;317126;-83
2023/05/01 00:58:31;;;;;;;8.67;6.67;;;;;;;;;;4382445;32;317742;-82
2023/05/01 01:01:00;;;;;;;9.60;6.82;;;;;;;;;;4372149;32;317670;-85
2023/05/01 01:03:27;;;;;;;10.25;7.47;;;;;;;;;;4381390;32;316511;-85
2023/05/01 01:06:02;;;;;;;7.78;6.97;;;;;;;;;;4357867;32;318462;-84
2023/05/01 01:08:33;;;;;;;7.15;6.45;;;;;;;;;;4346075;32;316858;-85
2023/05/01 01:11:08;;;;;;;8.98;6.15;;;;;;;;;;4356762;32;317279;-82
2023/05/01 01:13:43;;;;;;;8.70;5.53;;;;;;;;;;4367756;32;316438;-82
2023/05/01 01:16:19;;;;;;;11.68;7.47;;;;;;;;;;4357901;32;316438;-82
2023/05/01 01:18:52;;;;;;;7.23;5.43;;;;;;;;;;4364837;32;317354;-84
2023/05/01 01:21:26;;;;;;;7.60;5.62;;;;;;;;;;4376248;32;317544;-83
2023/05/01 01:24:35;;;;;;;7.60;5.10;;;;;;;;;;4357437;32;350529;-84
2023/05/01 01:27:30;;;;;;;6.78;5.87;;;;;;;;;;4371589;32;317340;-84
2023/05/01 01:30:33;;;;;;;7.35;5.53;;;;;;;;;;4371456;32;316515;-84
2023/05/01 01:33:20;;;;;;;6.65;5.60;;;;;;;;;;4370280;32;355423;-83
2023/05/01 01:35:55;;;;;;;7.12;5.68;;;;;;;;;;4360308;32;316812;-83
2023/05/01 01:38:29;;;;;;;7.25;5.95;;;;;;;;;;4367392;32;317126;-83
2023/05/01 01:41:08;;;;;;;6.97;5.70;;;;;;;;;;4357964;32;317332;-84
2023/05/01 01:43:40;;;;;;;6.50;5.67;;;;;;;;;;4367657;32;317210;-83
2023/05/01 01:46:09;;;;;;;8.10;6.67;;;;;;;;;;4356589;32;317226;-82
2023/05/01 01:48:41;;;;;;;7.72;6.68;;;;;;;;;;4367794;32;316945;-82
2023/05/01 01:51:14;;;;;;;10.07;7.13;;;;;;;;;;4373231;32;345253;-83
2023/05/01 01:53:45;;;;;;;11.77;7.70;;;;;;;;;;4385554;32;317781;-82
2023/05/01 01:56:15;;;;;;;11.30;9.33;;;;;;;;;;4357738;32;419237;-83
2023/05/01 01:58:43;;;;;;;14.67;7.97;;;;;;;;;;4379382;32;317446;-82
2023/05/01 02:01:10;;;;;;;9.90;8.70;;;;;;;;;;4374313;32;318087;-82
2023/05/01 02:03:39;;;;;;;16.33;10.07;;;;;;;;;;4383455;32;316696;-82
2023/05/01 02:06:08;;;;;;;13.00;8.10;;;;;;;;;;4359985;32;318560;-82
2023/05/01 02:08:38;;;;;;;12.20;7.73;;;;;;;;;;4369621;32;328865;-82
2023/05/01 02:11:06;;;;;;;10.15;7.87;;;;;;;;;;4360166;32;318413;-82
2023/05/01 02:13:36;;;;;;;10.77;7.40;;;;;;;;;;4370106;32;317716;-82
2023/05/01 02:16:06;;;;;;;8.27;7.17;;;;;;;;;;4359899;32;321025;-82
2023/05/01 02:18:33;;;;;;;10.80;8.43;;;;;;;;;;4355373;32;317721;-81
2023/05/01 02:21:01;;;;;;;11.97;8.80;;;;;;;;;;4366670;32;318076;-82
2023/05/01 02:23:29;;;;;;;9.70;7.97;;;;;;;;;;4376671;32;318204;-82
2023/05/01 02:26:00;;;;;;;15.40;7.85;;;;;;;;;;4374760;32;317348;-82
2023/05/01 02:28:28;;;;;;;13.48;7.35;;;;;;;;;;4383400;32;318818;-84
2023/05/01 02:30:56;;;;;;;11.70;7.97;;;;;;;;;;4373134;32;354125;-82
2023/05/01 02:33:23;;;;;;;10.15;7.65;;;;;;;;;;4376067;32;317515;-81
2023/05/01 02:35:49;;;;;;;9.63;7.00;;;;;;;;;;4374315;32;318432;-81
2023/05/01 02:38:17;;;;;;;11.80;7.97;;;;;;;;;;4384908;32;316764;-82
2023/05/01 02:40:47;;;;;;;12.93;8.30;;;;;;;;;;4383046;32;319565;-84
2023/05/01 02:43:19;;;;;;;9.17;7.53;;;;;;;;;;4371902;32;419356;-82
2023/05/01 02:45:49;;;;;;;10.57;8.37;;;;;;;;;;4379749;32;317916;-85
2023/05/01 02:48:20;;;;;;;9.25;7.90;;;;;;;;;;4384660;32;317858;-81
2023/05/01 02:50:48;;;;;;;8.00;7.20;;;;;;;;;;4373047;32;341154;-82
2023/05/01 02:53:17;;;;;;;10.57;8.17;;;;;;;;;;4383424;32;316489;-82
2023/05/01 02:55:44;;;;;;;12.57;6.87;;;;;;;;;;4382873;32;317617;-82
2023/05/01 02:58:17;;;;;;;11.90;7.60;;;;;;;;;;4371787;32;417621;-84
2023/05/01 03:00:44;;;;;;;9.47;6.23;;;;;;;;;;4384491;32;317581;-85
2023/05/01 03:03:12;;;;;;;8.23;5.80;;;;;;;;;;4371424;32;419923;-82
2023/05/01 03:05:40;;;;;;;6.43;5.83;;;;;;;;;;4381617;32;317512;-82
2023/05/01 03:08:08;;;;;;;7.93;6.63;;;;;;;;;;4372673;32;317565;-82
2023/05/01 03:10:35;;;;;;;10.27;7.43;;;;;;;;;;4383852;32;316709;-81
2023/05/01 03:13:02;;;;;;;14.33;9.90;;;;;;;;;;4372402;32;318056;-82
2023/05/01 03:15:30;;;;;;;24.55;15.23;;;;;;;;;;4369066;32;323557;-84
2023/05/01 03:17:57;;;;;;;26.30;16.13;;;;;;;;;;4369718;32;319563;-84
2023/05/01 03:20:23;;;;;;;30.10;19.20;;;;;;;;;;4383667;32;319185;-82
2023/05/01 03:22:50;;;;;;;24.43;17.93;;;;;;;;;;4374312;32;319613;-81
2023/05/01 03:25:19;;;;;;;24.15;16.77;;;;;;;;;;4375350;32;319380;-82
2023/05/01 03:27:48;;;;;;;22.43;16.27;;;;;;;;;;4382926;32;319285;-83
2023/05/01 03:30:15;;;;;;;21.57;14.90;;;;;;;;;;4371159;32;418698;-82
2023/05/01 03:32:43;;;;;;;31.20;19.25;;;;;;;;;;4377732;32;319060;-84
2023/05/01 03:35:11;;;;;;;38.80;23.43;;;;;;;;;;4349831;32;318840;-82
2023/05/01 03:37:38;;;;;;;38.37;25.00;;;;;;;;;;4382990;32;332621;-83
2023/05/01 03:40:05;;;;;;;31.83;18.97;;;;;;;;;;4373820;32;319199;-84
2023/05/01 03:42:32;;;;;;;26.27;18.97;;;;;;;;;;4373855;32;319378;-83
2023/05/01 03:45:01;;;;;;;30.83;19.30;;;;;;;;;;4357248;32;318443;-84
2023/05/01 03:47:27;;;;;;;20.50;14.33;;;;;;;;;;4374741;32;318720;-83
2023/05/01 03:49:55;;;;;;;20.40;14.67;;;;;;;;;;4371758;32;319380;-84
2023/05/01 03:52:22;;;;;;;17.43;15.00;;;;;;;;;;4383721;32;319633;-83
2023/05/01 03:54:49;;;;;;;25.93;15.43;;;;;;;;;;4372535;32;319558;-84
2023/05/01 03:57:16;;;;;;;24.30;14.70;;;;;;;;;;4383447;32;319379;-83
2023/05/01 03:59:43;;;;;;;22.60;15.27;;;;;;;;;;4383691;32;319300;-83
2023/05/01 04:02:10;;;;;;;21.30;14.27;;;;;;;;;;4372445;32;320090;-83
2023/05/01 04:04:37;;;;;;;17.77;14.27;;;;;;;;;;4371192;32;318664;-82
2023/05/01 04:07:05;;;;;;;16.47;12.80;;;;;;;;;;4357125;32;319467;-82
2023/05/01 04:09:33;;;;;;;17.30;12.17;;;;;;;;;;4367385;32;319241;-82
2023/05/01 04:12:03;;;;;;;15.53;11.50;;;;;;;;;;4371069;32;324357;-83
2023/05/01 04:14:30;;;;;;;15.40;10.60;;;;;;;;;;4356896;32;420118;-82
2023/05/01 04:16:58;;;;;;;12.40;10.40;;;;;;;;;;4382718;32;318823;-82
2023/05/01 04:19:25;;;;;;;12.83;9.97;;;;;;;;;;4370750;32;355513;-82
2023/05/01 04:21:51;;;;;;;14.40;11.27;;;;;;;;;;4383026;32;318148;-82
2023/05/01 04:24:19;;;;;;;14.70;11.50;;;;;;;;;;4373138;32;319456;-82
2023/05/01 04:26:48;;;;;;;19.77;12.33;;;;;;;;;;4382733;32;319203;-83
2023/05/01 04:29:15;;;;;;;27.40;15.47;;;;;;;;;;4372007;32;319410;-84
2023/05/01 04:31:42;;;;;;;19.63;16.03;;;;;;;;;;4381873;32;319367;-82
2023/05/01 04:34:09;;;;;;;24.13;17.73;;;;;;;;;;4358940;32;319332;-83
2023/05/01 04:36:36;;;;;;;23.87;16.23;;;;;;;;;;4375086;32;319322;-82
2023/05/01 04:39:04;;;;;;;26.83;21.10;;;;;;;;;;4378206;32;319465;-83
2023/05/01 04:41:33;;;;;;;21.63;17.13;;;;;;;;;;4382538;32;319356;-82
2023/05/01 04:44:00;;;;;;;20.07;11.50;;;;;;;;;;4381844;32;319172;-83
2023/05/01 04:46:27;;;;;;;10.97;7.70;;;;;;;;;;4371337;32;319916;-83
2023/05/01 04:48:53;;;;;;;16.70;9.87;;;;;;;;;;4382769;32;317822;-82
2023/05/01 04:51:20;;;;;;;13.73;9.27;;;;;;;;;;4371906;32;318496;-83
2023/05/01 04:53:48;;;;;;;10.57;9.13;;;;;;;;;;4381689;32;318159;-83
2023/05/01 04:56:15;;;;;;;12.37;9.57;;;;;;;;;;4350320;32;318250;-83
2023/05/01 04:58:44;;;;;;;21.73;11.90;;;;;;;;;;4382586;32;318287;-82
2023/05/01 05:01:11;;;;;;;30.10;17.30;;;;;;;;;;4371615;32;319565;-82
2023/05/01 05:03:38;;;;;;;65.17;32.33;;;;;;;;;;4382017;32;318846;-80
2023/05/01 05:06:04;;;;;;;44.60;31.50;;;;;;;;;;4344181;32;320127;-80
2023/05/01 05:08:32;;;;;;;40.13;27.30;;;;;;;;;;4367315;32;319122;-80
2023/05/01 05:10:59;;;;;;;34.27;25.13;;;;;;;;;;4366422;32;318416;-80
2023/05/01 05:13:26;;;;;;;35.17;24.23;;;;;;;;;;4356882;32;319342;-82
2023/05/01 05:15:54;;;;;;;32.53;20.27;;;;;;;;;;4357573;32;319170;-81
2023/05/01 05:18:21;;;;;;;31.57;21.10;;;;;;;;;;4357163;32;319338;-81
2023/05/01 05:20:48;;;;;;;28.17;20.23;;;;;;;;;;4376132;32;319001;-82
2023/05/01 05:23:15;;;;;;;27.23;19.83;;;;;;;;;;4371921;32;344988;-82
2023/05/01 05:25:42;;;;;;;20.87;17.10;;;;;;;;;;4385323;32;319271;-81
2023/05/01 05:28:09;;;;;;;23.13;17.93;;;;;;;;;;4375897;32;319606;-82
2023/05/01 05:30:37;;;;;;;22.67;14.90;;;;;;;;;;4385623;32;319657;-82
2023/05/01 05:33:09;;;;;;;17.70;12.97;;;;;;;;;;4371188;32;347981;-83
2023/05/01 05:35:36;;;;;;;20.93;12.93;;;;;;;;;;4383135;32;339291;-82
2023/05/01 05:38:03;;;;;;;13.23;11.77;;;;;;;;;;4384226;32;318660;-83
2023/05/01 05:40:30;;;;;;;15.83;13.43;;;;;;;;;;4370097;32;420118;-82
2023/05/01 05:42:56;;;;;;;18.23;16.13;;;;;;;;;;4385176;32;319341;-83
2023/05/01 05:45:24;;;;;;;24.50;22.20;;;;;;;;;;4375418;32;319370;-82
2023/05/01 05:47:51;;;;;;;19.77;16.58;;;;;;;;;;4371618;32;319620;-82
2023/05/01 05:50:20;;;;;;;15.70;13.67;;;;;;;;;;4374140;32;319443;-83
2023/05/01 05:52:46;;;;;;;32.03;20.03;;;;;;;;;;4385131;32;319191;-82
2023/05/01 05:55:13;;;;;;;18.13;15.30;;;;;;;;;;4373579;32;319438;-85
2023/05/01 05:57:40;;;;;;;13.53;12.37;;;;;;;;;;4383595;32;319431;-81
2023/05/01 06:00:09;;;;;;;14.17;11.13;;;;;;;;;;4373661;32;319180;-85
2023/05/01 06:02:37;;;;;;;14.63;13.10;;;;;;;;;;4383703;32;319467;-83
2023/05/01 06:05:05;;;;;;;18.57;16.67;;;;;;;;;;4364723;32;319651;-84
2023/05/01 06:07:33;;;;;;;25.77;19.67;;;;;;;;;;4369844;32;319007;-89
2023/05/01 06:10:03;;;;;;;20.97;17.80;;;;;;;;;;4368463;32;319269;-86
2023/05/01 06:12:33;;;;;;;27.70;16.20;;;;;;;;;;4358535;32;420319;-88
2023/05/01 06:14:59;;;;;;;19.85;15.55;;;;;;;;;;4372379;32;319244;-86
2023/05/01 06:17:26;;;;;;;27.83;18.83;;;;;;;;;;4375650;32;318840;-84
2023/05/01 06:19:53;;;;;;;16.43;10.80;;;;;;;;;;4387169;32;319222;-88
2023/05/01 06:22:20;;;;;;;21.10;11.97;;;;;;;;;;4376830;32;318600;-90
2023/05/01 06:24:49;;;;;;;19.17;12.47;;;;;;;;;;4387538;32;319061;-89
2023/05/01 06:27:15;;;;;;;15.40;9.20;;;;;;;;;;4376256;32;318551;-87
2023/05/01 06:29:45;;;;;;;11.73;9.90;;;;;;;;;;4389094;32;318138;-86
2023/05/01 06:32:12;;;;;;;14.80;9.90;;;;;;;;;;4376484;32;317660;-84
2023/05/01 06:34:39;;;;;;;12.23;8.97;;;;;;;;;;4378662;32;320886;-83
2023/05/01 06:37:06;;;;;;;15.53;10.30;;;;;;;;;;4353406;32;318366;-86
2023/05/01 06:39:34;;;;;;;12.77;9.43;;;;;;;;;;4368532;32;319715;-85
2023/05/01 06:42:03;;;;;;;13.67;9.97;;;;;;;;;;4368503;32;318162;-86
2023/05/01 06:44:31;;;;;;;11.30;9.07;;;;;;;;;;4355313;32;417313;-85
2023/05/01 06:47:00;;;;;;;10.37;8.43;;;;;;;;;;4377821;32;318112;-85
2023/05/01 06:49:27;;;;;;;9.25;7.95;;;;;;;;;;4364617;32;330508;-86
2023/05/01 06:51:54;;;;;;;10.25;7.03;;;;;;;;;;4383910;32;316604;-87
2023/05/01 06:54:20;;;;;;;9.52;7.68;;;;;;;;;;4374051;32;317636;-85
2023/05/01 06:56:47;;;;;;;9.63;6.95;;;;;;;;;;4382791;32;316495;-87
2023/05/01 06:59:15;;;;;;;7.62;6.32;;;;;;;;;;4373449;32;317224;-87
2023/05/01 07:01:42;;;;;;;8.23;6.57;;;;;;;;;;4381686;32;317370;-87
2023/05/01 07:04:09;;;;;;;8.77;6.28;;;;;;;;;;4374199;32;317240;-87
2023/05/01 07:06:38;;;;;;;8.07;6.43;;;;;;;;;;4382836;32;316915;-84
2023/05/01 07:09:05;;;;;;;15.48;6.95;;;;;;;;;;4373727;32;317662;-87
2023/05/01 07:11:32;;;;;;;10.85;6.55;;;;;;;;;;4382744;32;318288;-85
2023/05/01 07:14:00;;;;;;;12.40;7.45;;;;;;;;;;4374871;32;318126;-87
2023/05/01 07:16:31;;;;;;;8.35;6.12;;;;;;;;;;4355689;32;318459;-86
2023/05/01 07:18:57;;;;;;;9.43;6.43;;;;;;;;;;4368003;32;316839;-86
2023/05/01 07:21:24;;;;;;;14.68;7.22;;;;;;;;;;4371652;32;317035;-84
2023/05/01 07:23:51;;;;;;;9.75;7.30;;;;;;;;;;4382573;32;317450;-85
2023/05/01 07:26:18;;;;;;;9.23;5.95;;;;;;;;;;4373948;32;317563;-86
2023/05/01 07:28:45;;;;;;;6.10;5.50;;;;;;;;;;4383779;32;319801;-84
2023/05/01 07:31:11;;;;;;;6.80;5.87;;;;;;;;;;4373875;32;317126;-86
2023/05/01 07:33:40;;;;;;;6.60;5.95;;;;;;;;;;4384588;32;317687;-86
2023/05/01 07:36:08;;;;;;;8.32;6.62;;;;;;;;;;4358157;32;317350;-82
2023/05/01 07:38:34;;;;;;;8.30;5.55;;;;;;;;;;4373885;32;317140;-81
2023/05/01 07:41:01;;;;;;;7.62;5.68;;;;;;;;;;4367738;32;315603;-81
2023/05/01 07:43:28;;;;;;;10.13;5.35;;;;;;;;;;4354847;32;418628;-81
2023/05/01 07:45:57;;;;;;;6.68;5.37;;;;;;;;;;4366231;32;329713;-80
2023/05/01 07:48:24;;;;;;;6.15;4.68;;;;;;;;;;4357875;32;316478;-85
2023/05/01 07:50:53;;;;;;;6.75;5.20;;;;;;;;;;4380151;32;316817;-81
2023/05/01 07:53:21;;;;;;;6.57;5.47;;;;;;;;;;4372084;32;346374;-80
2023/05/01 07:55:48;;;;;;;13.73;5.22;;;;;;;;;;4383638;32;317791;-83
2023/05/01 07:58:16;;;;;;;5.50;5.00;;;;;;;;;;4372393;32;335419;-82
2023/05/01 08:00:43;;;;;;;9.98;5.72;;;;;;;;;;4382830;32;317401;-82
2023/05/01 08:03:10;;;;;;;10.25;5.22;;;;;;;;;;4373045;32;317596;-82
2023/05/01 08:05:40;;;;;;;9.20;5.82;;;;;;;;;;4382335;32;318966;-82
2023/05/01 08:08:08;;;;;;;9.13;5.28;;;;;;;;;;4371832;32;316984;-82
2023/05/01 08:10:35;;;;;;;6.37;5.05;;;;;;;;;;4383255;32;317110;-81
2023/05/01 08:13:01;;;;;;;12.20;5.40;;;;;;;;;;4382358;32;316804;-82
2023/05/01 08:15:28;;;;;;;5.85;4.78;;;;;;;;;;4370740;32;417737;-81
2023/05/01 08:17:55;;;;;;;5.35;3.75;;;;;;;;;;4382788;32;317111;-81
2023/05/01 08:20:22;;;;;;;5.35;4.03;;;;;;;;;;4373367;32;317018;-83
2023/05/01 08:22:50;;;;;;;4.28;3.65;;;;;;;;;;4381694;32;316738;-82
2023/05/01 08:25:18;;;;;;;5.32;3.45;;;;;;;;;;4359947;32;317125;-84
2023/05/01 08:27:45;;;;;;;8.40;4.12;;;;;;;;;;4385623;32;317458;-83
2023/05/01 08:30:12;;;;;;;6.97;4.00;;;;;;;;;;4373254;32;316879;-81
2023/05/01 08:32:38;;;;;;;10.10;3.92;;;;;;;;;;4383576;32;316605;-83
2023/05/01 08:35:06;;;;;;;17.23;4.45;;;;;;;;;;4365970;32;318335;-82
2023/05/01 08:37:33;;;;;;;7.37;4.40;;;;;;;;;;4367026;32;318616;-84
2023/05/01 08:40:02;;;;;;;6.25;4.65;;;;;;;;;;4365712;32;317190;-81
2023/05/01 08:42:30;;;;;;;7.35;3.60;;;;;;;;;;4353875;32;387665;-83
2023/05/01 08:44:59;;;;;;;8.52;3.47;;;;;;;;;;4365752;32;317486;-77
2023/05/01 08:47:27;;;;;;;5.20;3.45;;;;;;;;;;4368595;32;316706;-80
2023/05/01 08:49:55;;;;;;;5.10;3.60;;;;;;;;;;4380555;32;318746;-82
2023/05/01 08:52:23;;;;;;;5.78;3.85;;;;;;;;;;4372396;32;317692;-79
2023/05/01 08:54:53;;;;;;;4.87;3.35;;;;;;;;;;4379803;32;317509;-79
2023/05/01 08:57:21;;;;;;;5.20;3.55;;;;;;;;;;4372546;32;316754;-79
2023/05/01 08:59:52;;;;;;;5.22;3.75;;;;;;;;;;4381817;32;317222;-77
2023/05/01 09:02:21;;;;;;;4.20;3.80;;;;;;;;;;4372051;32;317495;-78
2023/05/01 09:04:51;;;;;;;3.42;2.92;;;;;;;;;;4379759;32;354091;-80
2023/05/01 09:07:18;;;;;;;8.63;2.92;;;;;;;;;;4372208;32;317474;-79
2023/05/01 09:09:45;;;;;;;4.07;3.30;;;;;;;;;;4381117;32;317264;-78
2023/05/01 09:12:22;;;;;;;3.55;3.00;;;;;;;;;;4364999;32;317380;-78
2023/05/01 09:14:51;;;;;;;4.37;3.05;;;;;;;;;;4379750;32;316369;-81
2023/05/01 09:17:20;;;;;;;7.23;3.00;;;;;;;;;;4363059;32;317252;-79
2023/05/01 09:19:51;;;;;;;11.70;2.60;;;;;;;;;;4382474;32;317111;-80
2023/05/01 09:22:20;;;;;;;3.22;2.45;;;;;;;;;;4372751;32;318389;-80
2023/05/01 09:24:47;;;;;;;3.12;2.50;;;;;;;;;;4374327;32;317246;-80
2023/05/01 09:27:14;;;;;;;3.30;2.47;;;;;;;;;;4372285;32;317239;-80
2023/05/01 09:29:42;;;;;;;3.30;2.65;;;;;;;;;;4382422;32;317275;-82
2023/05/01 09:32:19;;;;;;;2.30;2.10;;;;;;;;;;4370993;32;317518;-83
2023/05/01 09:34:47;;;;;;;4.10;2.40;;;;;;;;;;4384198;32;316604;-82
2023/05/01 09:37:26;;;;;;;3.80;1.95;;;;;;;;;;4372155;32;317364;-78
2023/05/01 09:40:03;;;;;;;4.82;1.85;;;;;;;;;;4367077;32;317446;-79
2023/05/01 09:42:30;;;;;;;1.92;1.35;;;;;;;;;;4354518;32;416732;-83
2023/05/01 09:44:57;;;;;;;4.75;1.73;;;;;;;;;;4367463;32;317183;-81
2023/05/01 09:47:27;;;;;;;3.00;1.85;;;;;;;;;;4357323;32;316655;-81
2023/05/01 09:49:55;;;;;;;4.50;2.28;;;;;;;;;;4373363;32;316594;-81
2023/05/01 09:52:22;;;;;;;4.00;2.33;;;;;;;;;;4371287;32;317185;-82
2023/05/01 09:54:52;;;;;;;2.35;1.70;;;;;;;;;;4380871;32;316727;-81
2023/05/01 09:57:36;;;;;;;2.08;1.55;;;;;;;;;;4371737;32;317928;-81
2023/05/01 10:00:07;;;;;;;4.95;1.60;;;;;;;;;;4381771;32;316554;-82
2023/05/01 10:02:35;;;;;;;2.95;2.00;;;;;;;;;;4368901;32;416315;-82
2023/05/01 10:05:02;;;;;;;2.35;1.77;;;;;;;;;;4377764;32;317258;-84
2023/05/01 10:07:30;;;;;;;3.87;1.87;;;;;;;;;;4353022;32;416635;-81
2023/05/01 10:09:57;;;;;;;3.72;2.12;;;;;;;;;;4368452;32;317136;-80
2023/05/01 10:12:25;;;;;;;4.40;1.58;;;;;;;;;;4359233;32;317408;-82
2023/05/01 10:14:53;;;;;;;1.87;1.37;;;;;;;;;;4370321;32;316754;-85
2023/05/01 10:17:20;;;;;;;2.70;1.70;;;;;;;;;;4360040;32;317804;-85
2023/05/01 10:19:49;;;;;;;3.60;1.65;;;;;;;;;;4371050;32;316735;-79
2023/05/01 10:22:16;;;;;;;2.37;1.80;;;;;;;;;;4375039;32;317270;-77
2023/05/01 10:24:44;;;;;;;2.47;1.60;;;;;;;;;;4384494;32;317274;-78
2023/05/01 10:27:13;;;;;;;3.17;1.55;;;;;;;;;;4373469;32;317285;-79
2023/05/01 10:29:40;;;;;;;2.30;1.42;;;;;;;;;;4366370;32;317134;-79
2023/05/01 10:32:09;;;;;;;2.00;1.40;;;;;;;;;;4358086;32;317568;-79
2023/05/01 10:34:44;;;;;;;3.87;1.92;;;;;;;;;;4371103;32;317375;-78
2023/05/01 10:37:18;;;;;;;5.82;1.90;;;;;;;;;;4373786;32;317362;-79
2023/05/01 10:39:44;;;;;;;4.47;1.85;;;;;;;;;;4383862;32;317433;-80
2023/05/01 10:42:13;;;;;;;3.90;1.90;;;;;;;;;;4372857;32;317310;-80
2023/05/01 10:44:41;;;;;;;2.30;1.60;;;;;;;;;;4383879;32;317430;-81
2023/05/01 10:47:44;;;;;;;2.03;1.42;;;;;;;;;;4374102;32;317404;-80
2023/05/01 10:50:14;;;;;;;3.30;1.50;;;;;;;;;;4372013;32;317322;-80
2023/05/01 10:53:24;;;;;;;1.60;1.35;;;;;;;;;;4369562;32;317818;-80
2023/05/01 10:55:54;;;;;;;3.28;1.67;;;;;;;;;;4352226;32;417583;-79
2023/05/01 10:58:55;;;;;;;2.55;1.40;;;;;;;;;;4373867;32;317556;-80
2023/05/01 11:01:31;;;;;;;9.10;1.85;;;;;;;;;;4365338;32;357001;-80
2023/05/01 11:03:59;;;;;;;1.85;1.20;;;;;;;;;;4381797;32;355036;-80
2023/05/01 11:06:28;;;;;;;2.53;1.48;;;;;;;;;;4362070;32;317428;-80
2023/05/01 11:08:57;;;;;;;1.75;1.42;;;;;;;;;;4367391;32;317313;-80
2023/05/01 11:11:50;;;;;;;2.55;1.70;;;;;;;;;;4358905;32;316740;-79
2023/05/01 11:14:18;;;;;;;2.25;1.60;;;;;;;;;;4358805;32;317552;-81
2023/05/01 11:16:47;;;;;;;5.35;1.67;;;;;;;;;;4368788;32;317207;-81
2023/05/01 11:19:49;;;;;;;4.15;1.52;;;;;;;;;;4344577;32;349127;-80
2023/05/01 11:22:16;;;;;;;2.15;1.87;;;;;;;;;;4373891;32;316780;-82
2023/05/01 11:24:43;;;;;;;2.50;1.60;;;;;;;;;;4382740;32;317808;-80
2023/05/01 11:27:15;;;;;;;3.40;1.80;;;;;;;;;;4372919;32;317649;-80
2023/05/01 11:29:48;;;;;;;4.20;1.87;;;;;;;;;;4381293;32;316624;-80
2023/05/01 11:32:25;;;;;;;5.57;1.60;;;;;;;;;;4371971;32;317593;-79
2023/05/01 11:34:53;;;;;;;4.78;1.27;;;;;;;;;;4381649;32;316693;-83
2023/05/01 11:37:20;;;;;;;3.60;1.63;;;;;;;;;;4355829;32;335221;-82
2023/05/01 11:39:51;;;;;;;4.07;1.55;;;;;;;;;;4366818;32;317522;-84
2023/05/01 11:42:22;;;;;;;3.15;1.92;;;;;;;;;;4356108;32;316805;-86
2023/05/01 11:45:10;;;;;;;1.75;1.50;;;;;;;;;;4372642;32;316577;-83
2023/05/01 11:47:37;;;;;;;4.15;2.58;;;;;;;;;;4360209;32;417958;-86
2023/05/01 11:50:05;;;;;;;3.10;1.95;;;;;;;;;;4372247;32;317277;-82
2023/05/01 11:52:43;;;;;;;2.25;1.58;;;;;;;;;;4381924;32;317319;-81
2023/05/01 11:55:10;;;;;;;4.32;2.08;;;;;;;;;;4372127;32;317243;-82
2023/05/01 11:57:47;;;;;;;3.60;1.77;;;;;;;;;;4371871;32;318602;-82
2023/05/01 12:00:15;;;;;;;3.17;2.33;;;;;;;;;;4356483;32;317290;-80
2023/05/01 12:02:56;;;;;;;3.10;1.95;;;;;;;;;;4366642;32;317356;-80
2023/05/01 12:05:23;;;;;;;4.43;2.53;;;;;;;;;;4361921;32;316714;-82
2023/05/01 12:07:50;;;;;;;2.87;2.10;;;;;;;;;;4381138;32;316630;-79
2023/05/01 12:10:18;;;;;;;10.23;2.80;;;;;;;;;;4373089;32;317519;-82
2023/05/01 12:12:46;;;;;;;5.85;2.05;;;;;;;;;;4382106;32;318778;-82
2023/05/01 12:15:13;;;;;;;10.45;1.90;;;;;;;;;;4372852;32;316523;-82
2023/05/01 12:17:43;;;;;;;6.43;2.00;;;;;;;;;;4375650;32;318606;-82
2023/05/01 12:20:11;;;;;;;7.72;2.70;;;;;;;;;;4368897;32;331924;-82
2023/05/01 12:22:49;;;;;;;2.97;2.35;;;;;;;;;;4366511;32;316756;-82
2023/05/01 12:25:18;;;;;;;2.10;1.90;;;;;;;;;;4370588;32;317705;-83
2023/05/01 12:27:49;;;;;;;6.05;2.80;;;;;;;;;;4381141;32;317295;-82
2023/05/01 12:30:25;;;;;;;5.65;2.58;;;;;;;;;;4371288;32;317495;-82
2023/05/01 12:32:52;;;;;;;6.15;2.53;;;;;;;;;;4382025;32;317666;-82
2023/05/01 12:35:21;;;;;;;4.35;2.70;;;;;;;;;;4370757;32;317390;-82
2023/05/01 12:37:48;;;;;;;4.22;2.50;;;;;;;;;;4382081;32;317378;-82
2023/05/01 12:40:17;;;;;;;6.25;2.53;;;;;;;;;;4372359;32;323477;-82
2023/05/01 12:42:44;;;;;;;5.05;2.65;;;;;;;;;;4380267;32;349531;-82
2023/05/01 12:45:14;;;;;;;3.20;2.40;;;;;;;;;;4370404;32;347051;-86
2023/05/01 12:47:41;;;;;;;5.35;2.28;;;;;;;;;;4382523;32;316724;-86
2023/05/01 12:50:10;;;;;;;7.40;2.22;;;;;;;;;;4372163;32;320825;-85
2023/05/01 12:52:37;;;;;;;2.50;1.90;;;;;;;;;;4373136;32;316446;-86
2023/05/01 12:55:07;;;;;;;6.80;2.10;;;;;;;;;;4376533;32;317128;-86
2023/05/01 12:57:35;;;;;;;3.42;2.22;;;;;;;;;;4381393;32;322720;-85
2023/05/01 13:00:04;;;;;;;10.32;2.45;;;;;;;;;;4381599;32;316408;-87
2023/05/01 13:02:33;;;;;;;5.62;2.65;;;;;;;;;;4369599;32;417708;-85
2023/05/01 13:05:07;;;;;;;4.10;2.00;;;;;;;;;;4380270;32;325955;-85
2023/05/01 13:07:35;;;;;;;4.47;2.30;;;;;;;;;;4353259;32;416336;-87
2023/05/01 13:10:04;;;;;;;8.23;3.53;;;;;;;;;;4367136;32;316735;-86
2023/05/01 13:12:32;;;;;;;2.72;1.80;;;;;;;;;;4353467;32;418005;-86
2023/05/01 13:14:59;;;;;;;3.20;1.80;;;;;;;;;;4366098;32;316775;-85
2023/05/01 13:17:28;;;;;;;10.93;2.30;;;;;;;;;;4357636;32;317250;-85
2023/05/01 13:19:57;;;;;;;3.83;2.40;;;;;;;;;;4370024;32;318100;-87
2023/05/01 13:22:34;;;;;;;2.80;2.08;;;;;;;;;;4371312;32;317379;-85
2023/05/01 13:25:05;;;;;;;2.97;1.90;;;;;;;;;;4382482;32;316538;-85
2023/05/01 13:27:32;;;;;;;3.55;2.00;;;;;;;;;;4348915;32;416764;-87
2023/05/01 13:30:00;;;;;;;3.35;1.80;;;;;;;;;;4381532;32;317116;-85
2023/05/01 13:32:27;;;;;;;6.60;2.65;;;;;;;;;;4379907;32;316747;-84
2023/05/01 13:34:57;;;;;;;3.15;2.37;;;;;;;;;;4391116;32;315243;-86
2023/05/01 13:37:24;;;;;;;16.92;2.72;;;;;;;;;;4366819;32;316418;-85
2023/05/01 13:39:50;;;;;;;5.70;2.53;;;;;;;;;;4369880;32;318301;-85
2023/05/01 13:42:23;;;;;;;18.12;2.53;;;;;;;;;;4359877;32;317183;-85
2023/05/01 13:44:52;;;;;;;15.88;2.75;;;;;;;;;;4373386;32;317281;-86
2023/05/01 13:47:19;;;;;;;3.05;2.40;;;;;;;;;;4374681;32;318470;-85
2023/05/01 13:49:47;;;;;;;3.25;2.25;;;;;;;;;;4387438;32;317229;-85
2023/05/01 13:52:17;;;;;;;4.62;2.12;;;;;;;;;;4378198;32;317129;-86
2023/05/01 13:54:45;;;;;;;3.05;2.42;;;;;;;;;;4387030;32;344184;-84
2023/05/01 13:57:14;;;;;;;9.50;2.58;;;;;;;;;;4388509;32;317994;-84
2023/05/01 13:59:42;;;;;;;7.45;2.30;;;;;;;;;;4399391;32;316994;-83
2023/05/01 14:02:20;;;;;;;6.18;2.00;;;;;;;;;;4387136;32;316387;-85
2023/05/01 14:04:47;;;;;;;2.25;2.03;;;;;;;;;;4385486;32;316508;-86
2023/05/01 14:07:18;;;;;;;5.28;2.25;;;;;;;;;;4360727;32;320034;-87
2023/05/01 14:09:48;;;;;;;7.95;1.90;;;;;;;;;;4370204;32;317216;-87
2023/05/01 14:12:18;;;;;;;3.17;1.75;;;;;;;;;;4360237;32;317195;-86
2023/05/01 14:14:48;;;;;;;3.85;1.70;;;;;;;;;;4369434;32;316635;-86
2023/05/01 14:17:15;;;;;;;8.68;1.90;;;;;;;;;;4359732;32;316583;-87
2023/05/01 14:19:42;;;;;;;4.62;1.73;;;;;;;;;;4365721;32;317240;-84
2023/05/01 14:22:09;;;;;;;2.17;1.87;;;;;;;;;;4373945;32;317389;-85
2023/05/01 14:24:41;;;;;;;3.95;2.20;;;;;;;;;;4384395;32;316908;-86
2023/05/01 14:27:12;;;;;;;6.78;2.25;;;;;;;;;;4365322;32;341532;-86
2023/05/01 14:29:42;;;;;;;4.53;2.53;;;;;;;;;;4384165;32;317200;-85
2023/05/01 14:32:09;;;;;;;3.00;2.22;;;;;;;;;;4373826;32;317359;-85
2023/05/01 14:34:37;;;;;;;8.05;2.45;;;;;;;;;;4383944;32;317254;-86